sensor_id;sensor_type;location;lat;lon;timestamp;noise_LAeq;noise_LA_min;noise_LA_max;noise_LA01;noise_LA95
70740;Laerm;58330;51.888;11.052;2023-06-10T00:01:17;5.00;5.00;5.00;;
70740;Laerm;58330;51.888;11.052;2023-06-10T00:03:44;5.00;5.00;5.00;;
70740;Laerm;58330;51.888;11.052;2023-06-10T00:06:10;5.00;5.00;5.00;;
70740;Laerm;58330;51.888;11.052;2023-06-10T00:08:36;5.00;5.00;5.00;;
70740;Laerm;58330;51.888;11.052;2023-06-10T00:11:04;5.00;5.00;5.00;;
70740;Laerm;58330;51.888;11.052;2023-06-10T00:13:31;5.00;5.00;5.00;;
70740;Laerm;58330;51.888;11.052;2023-06-10T00:15:57;5.00;5.00;5.00;;
70740;Laerm;58330;51.888;11.052;2023-06-10T00:18:25;5.00;5.00;5.00;;
70740;Laerm;58330;51.888;11.052;2023-06-10T00:20:52;5.00;5.00;5.00;;
70740;Laerm;58330;51.888;11.052;2023-06-10T00:23:20;5.00;5.00;5.00;;
70740;Laerm;58330;51.888;11.052;2023-06-10T00:25:46;5.00;5.00;5.00;;
70740;Laerm;58330;51.888;11.052;2023-06-10T00:28:13;5.00;5.00;5.00;;
70740;Laerm;58330;51.888;11.052;2023-06-10T00:30:39;5.00;5.00;5.00;;
70740;Laerm;58330;51.888;11.052;2023-06-10T00:33:05;5.00;5.00;5.00;;
70740;Laerm;58330;51.888;11.052;2023-06-10T00:35:33;5.00;5.00;5.00;;
70740;Laerm;58330;51.888;11.052;2023-06-10T00:37:59;5.00;5.00;5.00;;
70740;Laerm;58330;51.888;11.052;2023-06-10T00:40:26;5.00;5.00;5.00;;
70740;Laerm;58330;51.888;11.052;2023-06-10T00:42:52;5.00;5.00;5.00;;
70740;Laerm;58330;51.888;11.052;2023-06-10T00:45:19;5.00;5.00;5.00;;
70740;Laerm;58330;51.888;11.052;2023-06-10T00:47:45;5.00;5.00;5.00;;
70740;Laerm;58330;51.888;11.052;2023-06-10T00:50:11;5.00;5.00;5.00;;
70740;Laerm;58330;51.888;11.052;2023-06-10T00:52:39;5.00;5.00;5.00;;
70740;Laerm;58330;51.888;11.052;2023-06-10T00:55:05;5.00;5.00;5.00;;
70740;Laerm;58330;51.888;11.052;2023-06-10T00:57:32;5.00;5.00;5.00;;
70740;Laerm;58330;51.888;11.052;2023-06-10T00:59:59;5.00;5.00;5.00;;
70740;Laerm;58330;51.888;11.052;2023-06-10T01:02:25;5.00;5.00;5.00;;
70740;Laerm;58330;51.888;11.052;2023-06-10T01:04:52;5.00;5.00;5.00;;
70740;Laerm;58330;51.888;11.052;2023-06-10T01:07:21;5.00;5.00;5.00;;
70740;Laerm;58330;51.888;11.052;2023-06-10T01:09:52;5.00;5.00;5.00;;
70740;Laerm;58330;51.888;11.052;2023-06-10T01:12:24;5.00;5.00;5.00;;
70740;Laerm;58330;51.888;11.052;2023-06-10T01:14:52;5.00;5.00;5.00;;
70740;Laerm;58330;51.888;11.052;2023-06-10T01:17:20;5.00;5.00;5.00;;
70740;Laerm;58330;51.888;11.052;2023-06-10T01:19:52;5.00;5.00;5.00;;
70740;Laerm;58330;51.888;11.052;2023-06-10T01:22:21;5.00;5.00;5.00;;
70740;Laerm;58330;51.888;11.052;2023-06-10T01:24:47;5.00;5.00;5.00;;
70740;Laerm;58330;51.888;11.052;2023-06-10T01:27:15;5.00;5.00;5.00;;
70740;Laerm;58330;51.888;11.052;2023-06-10T01:29:43;5.00;5.00;5.00;;
70740;Laerm;58330;51.888;11.052;2023-06-10T01:32:12;5.00;5.00;5.00;;
70740;Laerm;58330;51.888;11.052;2023-06-10T01:34:41;5.00;5.00;5.00;;
70740;Laerm;58330;51.888;11.052;2023-06-10T01:37:08;5.00;5.00;5.00;;
70740;Laerm;58330;51.888;11.052;2023-06-10T01:39:36;5.00;5.00;5.00;;
70740;Laerm;58330;51.888;11.052;2023-06-10T01:42:04;5.00;5.00;5.00;;
70740;Laerm;58330;51.888;11.052;2023-06-10T01:44:31;5.00;5.00;5.00;;
70740;Laerm;58330;51.888;11.052;2023-06-10T01:46:58;5.00;5.00;5.00;;
70740;Laerm;58330;51.888;11.052;2023-06-10T01:49:24;5.00;5.00;5.00;;
70740;Laerm;58330;51.888;11.052;2023-06-10T01:51:51;5.00;5.00;5.00;;
70740;Laerm;58330;51.888;11.052;2023-06-10T01:54:17;5.00;5.00;5.00;;
70740;Laerm;58330;51.888;11.052;2023-06-10T01:56:45;5.00;5.00;5.00;;
70740;Laerm;58330;51.888;11.052;2023-06-10T01:59:11;5.00;5.00;5.00;;
70740;Laerm;58330;51.888;11.052;2023-06-10T02:01:37;5.00;5.00;5.00;;
70740;Laerm;58330;51.888;11.052;2023-06-10T02:04:03;5.00;5.00;5.00;;
70740;Laerm;58330;51.888;11.052;2023-06-10T02:06:30;5.00;5.00;5.00;;
70740;Laerm;58330;51.888;11.052;2023-06-10T02:08:56;5.00;5.00;5.00;;
70740;Laerm;58330;51.888;11.052;2023-06-10T02:11:23;5.00;5.00;5.00;;
70740;Laerm;58330;51.888;11.052;2023-06-10T02:13:52;5.00;5.00;5.00;;
70740;Laerm;58330;51.888;11.052;2023-06-10T02:16:18;5.00;5.00;5.00;;
70740;Laerm;58330;51.888;11.052;2023-06-10T02:18:46;5.00;5.00;5.00;;
70740;Laerm;58330;51.888;11.052;2023-06-10T02:21:13;5.00;5.00;5.00;;
70740;Laerm;58330;51.888;11.052;2023-06-10T02:23:40;5.00;5.00;5.00;;
70740;Laerm;58330;51.888;11.052;2023-06-10T02:26:06;5.00;5.00;5.00;;
70740;Laerm;58330;51.888;11.052;2023-06-10T02:28:32;5.00;5.00;5.00;;
70740;Laerm;58330;51.888;11.052;2023-06-10T02:31:00;5.00;5.00;5.00;;
70740;Laerm;58330;51.888;11.052;2023-06-10T02:33:26;5.00;5.00;5.00;;
70740;Laerm;58330;51.888;11.052;2023-06-10T02:35:53;5.00;5.00;5.00;;
70740;Laerm;58330;51.888;11.052;2023-06-10T02:38:19;5.00;5.00;5.00;;
70740;Laerm;58330;51.888;11.052;2023-06-10T02:40:45;5.00;5.00;5.00;;
70740;Laerm;58330;51.888;11.052;2023-06-10T02:43:12;5.00;5.00;5.00;;
70740;Laerm;58330;51.888;11.052;2023-06-10T02:45:38;5.00;5.00;5.00;;
70740;Laerm;58330;51.888;11.052;2023-06-10T02:48:06;5.00;5.00;5.00;;
70740;Laerm;58330;51.888;11.052;2023-06-10T02:50:33;5.00;5.00;5.00;;
70740;Laerm;58330;51.888;11.052;2023-06-10T02:52:59;5.00;5.00;5.00;;
70740;Laerm;58330;51.888;11.052;2023-06-10T02:55:25;5.00;5.00;5.00;;
70740;Laerm;58330;51.888;11.052;2023-06-10T02:57:52;5.00;5.00;5.00;;
70740;Laerm;58330;51.888;11.052;2023-06-10T03:00:19;5.00;5.00;5.00;;
70740;Laerm;58330;51.888;11.052;2023-06-10T03:02:46;5.00;5.00;5.00;;
70740;Laerm;58330;51.888;11.052;2023-06-10T03:05:14;5.00;5.00;5.00;;
70740;Laerm;58330;51.888;11.052;2023-06-10T03:07:42;5.00;5.00;5.00;;
70740;Laerm;58330;51.888;11.052;2023-06-10T03:10:08;5.00;5.00;5.00;;
70740;Laerm;58330;51.888;11.052;2023-06-10T03:12:34;5.00;5.00;5.00;;
70740;Laerm;58330;51.888;11.052;2023-06-10T03:15:01;5.00;5.00;5.00;;
70740;Laerm;58330;51.888;11.052;2023-06-10T03:17:28;5.00;5.00;5.00;;
70740;Laerm;58330;51.888;11.052;2023-06-10T03:19:55;5.00;5.00;5.00;;
70740;Laerm;58330;51.888;11.052;2023-06-10T03:22:22;5.00;5.00;5.00;;
70740;Laerm;58330;51.888;11.052;2023-06-10T03:24:49;5.00;5.00;5.00;;
70740;Laerm;58330;51.888;11.052;2023-06-10T03:27:16;5.00;5.00;5.00;;
70740;Laerm;58330;51.888;11.052;2023-06-10T03:29:42;5.00;5.00;5.00;;
70740;Laerm;58330;51.888;11.052;2023-06-10T03:32:09;5.00;5.00;5.00;;
70740;Laerm;58330;51.888;11.052;2023-06-10T03:34:35;5.00;5.00;5.00;;
70740;Laerm;58330;51.888;11.052;2023-06-10T03:37:02;5.00;5.00;5.00;;
70740;Laerm;58330;51.888;11.052;2023-06-10T03:39:30;5.00;5.00;5.00;;
70740;Laerm;58330;51.888;11.052;2023-06-10T03:41:56;5.00;5.00;5.00;;
70740;Laerm;58330;51.888;11.052;2023-06-10T03:44:23;5.00;5.00;5.00;;
70740;Laerm;58330;51.888;11.052;2023-06-10T03:46:50;5.00;5.00;5.00;;
70740;Laerm;58330;51.888;11.052;2023-06-10T03:49:17;5.00;5.00;5.00;;
70740;Laerm;58330;51.888;11.052;2023-06-10T03:51:43;5.00;5.00;5.00;;
70740;Laerm;58330;51.888;11.052;2023-06-10T03:54:10;5.00;5.00;5.00;;
70740;Laerm;58330;51.888;11.052;2023-06-10T03:56:38;5.00;5.00;5.00;;
70740;Laerm;58330;51.888;11.052;2023-06-10T03:59:05;5.00;5.00;5.00;;
70740;Laerm;58330;51.888;11.052;2023-06-10T04:01:31;5.00;5.00;5.00;;
70740;Laerm;58330;51.888;11.052;2023-06-10T04:03:58;5.00;5.00;5.00;;
70740;Laerm;58330;51.888;11.052;2023-06-10T04:06:26;5.00;5.00;5.00;;
70740;Laerm;58330;51.888;11.052;2023-06-10T04:08:54;5.00;5.00;5.00;;
70740;Laerm;58330;51.888;11.052;2023-06-10T04:11:21;5.00;5.00;5.00;;
70740;Laerm;58330;51.888;11.052;2023-06-10T04:13:49;5.00;5.00;5.00;;
70740;Laerm;58330;51.888;11.052;2023-06-10T04:16:15;5.00;5.00;5.00;;
70740;Laerm;58330;51.888;11.052;2023-06-10T04:18:42;5.00;5.00;5.00;;
70740;Laerm;58330;51.888;11.052;2023-06-10T04:21:08;5.00;5.00;5.00;;
70740;Laerm;58330;51.888;11.052;2023-06-10T04:23:34;5.00;5.00;5.00;;
70740;Laerm;58330;51.888;11.052;2023-06-10T04:26:01;5.00;5.00;5.00;;
70740;Laerm;58330;51.888;11.052;2023-06-10T04:28:27;5.00;5.00;5.00;;
70740;Laerm;58330;51.888;11.052;2023-06-10T04:30:55;5.00;5.00;5.00;;
70740;Laerm;58330;51.888;11.052;2023-06-10T04:33:21;5.00;5.00;5.00;;
70740;Laerm;58330;51.888;11.052;2023-06-10T04:35:47;5.00;5.00;5.00;;
70740;Laerm;58330;51.888;11.052;2023-06-10T04:38:14;5.00;5.00;5.00;;
70740;Laerm;58330;51.888;11.052;2023-06-10T04:40:40;5.00;5.00;5.00;;
70740;Laerm;58330;51.888;11.052;2023-06-10T04:43:06;5.00;5.00;5.00;;
70740;Laerm;58330;51.888;11.052;2023-06-10T04:45:33;5.00;5.00;5.00;;
70740;Laerm;58330;51.888;11.052;2023-06-10T04:48:00;5.00;5.00;5.00;;
70740;Laerm;58330;51.888;11.052;2023-06-10T04:50:28;5.00;5.00;5.00;;
70740;Laerm;58330;51.888;11.052;2023-06-10T04:52:54;5.00;5.00;5.00;;
70740;Laerm;58330;51.888;11.052;2023-06-10T04:55:22;5.00;5.00;5.00;;
70740;Laerm;58330;51.888;11.052;2023-06-10T04:57:48;5.00;5.00;5.00;;
70740;Laerm;58330;51.888;11.052;2023-06-10T05:00:15;5.00;5.00;5.00;;
70740;Laerm;58330;51.888;11.052;2023-06-10T05:02:42;5.00;5.00;5.00;;
70740;Laerm;58330;51.888;11.052;2023-06-10T05:05:11;5.00;5.00;5.00;;
70740;Laerm;58330;51.888;11.052;2023-06-10T05:07:37;5.00;5.00;5.00;;
70740;Laerm;58330;51.888;11.052;2023-06-10T05:10:04;5.00;5.00;5.00;;
70740;Laerm;58330;51.888;11.052;2023-06-10T05:12:31;5.00;5.00;5.00;;
70740;Laerm;58330;51.888;11.052;2023-06-10T05:14:57;5.00;5.00;5.00;;
70740;Laerm;58330;51.888;11.052;2023-06-10T05:17:23;5.00;5.00;5.00;;
70740;Laerm;58330;51.888;11.052;2023-06-10T05:19:50;5.00;5.00;5.00;;
70740;Laerm;58330;51.888;11.052;2023-06-10T05:22:19;5.00;5.00;5.00;;
70740;Laerm;58330;51.888;11.052;2023-06-10T05:24:45;5.00;5.00;5.00;;
70740;Laerm;58330;51.888;11.052;2023-06-10T05:27:12;5.00;5.00;5.00;;
70740;Laerm;58330;51.888;11.052;2023-06-10T05:29:38;5.00;5.00;5.00;;
70740;Laerm;58330;51.888;11.052;2023-06-10T05:32:05;5.00;5.00;5.00;;
70740;Laerm;58330;51.888;11.052;2023-06-10T05:34:32;5.00;5.00;5.00;;
70740;Laerm;58330;51.888;11.052;2023-06-10T05:36:58;5.00;5.00;5.00;;
70740;Laerm;58330;51.888;11.052;2023-06-10T05:39:26;5.00;5.00;5.00;;
70740;Laerm;58330;51.888;11.052;2023-06-10T05:41:52;5.00;5.00;5.00;;
70740;Laerm;58330;51.888;11.052;2023-06-10T05:44:18;5.00;5.00;5.00;;
70740;Laerm;58330;51.888;11.052;2023-06-10T05:46:44;5.00;5.00;5.00;;
70740;Laerm;58330;51.888;11.052;2023-06-10T05:49:11;5.00;5.00;5.00;;
70740;Laerm;58330;51.888;11.052;2023-06-10T05:51:37;5.00;5.00;5.00;;
70740;Laerm;58330;51.888;11.052;2023-06-10T05:54:04;5.00;5.00;5.00;;
70740;Laerm;58330;51.888;11.052;2023-06-10T05:56:31;5.00;5.00;5.00;;
70740;Laerm;58330;51.888;11.052;2023-06-10T05:58:58;5.00;5.00;5.00;;
70740;Laerm;58330;51.888;11.052;2023-06-10T06:01:24;5.00;5.00;5.00;;
70740;Laerm;58330;51.888;11.052;2023-06-10T06:03:50;5.00;5.00;5.00;;
70740;Laerm;58330;51.888;11.052;2023-06-10T06:06:16;5.00;5.00;5.00;;
70740;Laerm;58330;51.888;11.052;2023-06-10T06:08:45;5.00;5.00;5.00;;
70740;Laerm;58330;51.888;11.052;2023-06-10T06:11:11;5.00;5.00;5.00;;
70740;Laerm;58330;51.888;11.052;2023-06-10T06:13:40;5.00;5.00;5.00;;
70740;Laerm;58330;51.888;11.052;2023-06-10T06:16:07;5.00;5.00;5.00;;
70740;Laerm;58330;51.888;11.052;2023-06-10T06:18:33;5.00;5.00;5.00;;
70740;Laerm;58330;51.888;11.052;2023-06-10T06:20:59;5.00;5.00;5.00;;
70740;Laerm;58330;51.888;11.052;2023-06-10T06:23:26;5.00;5.00;5.00;;
70740;Laerm;58330;51.888;11.052;2023-06-10T06:25:52;5.00;5.00;5.00;;
70740;Laerm;58330;51.888;11.052;2023-06-10T06:28:18;5.00;5.00;5.00;;
70740;Laerm;58330;51.888;11.052;2023-06-10T06:30:47;5.00;5.00;5.00;;
70740;Laerm;58330;51.888;11.052;2023-06-10T06:33:13;5.00;5.00;5.00;;
70740;Laerm;58330;51.888;11.052;2023-06-10T06:35:40;5.00;5.00;5.00;;
70740;Laerm;58330;51.888;11.052;2023-06-10T06:38:06;5.00;5.00;5.00;;
70740;Laerm;58330;51.888;11.052;2023-06-10T06:40:32;5.00;5.00;5.00;;
70740;Laerm;58330;51.888;11.052;2023-06-10T06:42:59;5.00;5.00;5.00;;
70740;Laerm;58330;51.888;11.052;2023-06-10T06:45:25;5.00;5.00;5.00;;
70740;Laerm;58330;51.888;11.052;2023-06-10T06:47:53;5.00;5.00;5.00;;
70740;Laerm;58330;51.888;11.052;2023-06-10T06:50:20;5.00;5.00;5.00;;
70740;Laerm;58330;51.888;11.052;2023-06-10T06:52:47;5.00;5.00;5.00;;
70740;Laerm;58330;51.888;11.052;2023-06-10T06:55:13;5.00;5.00;5.00;;
70740;Laerm;58330;51.888;11.052;2023-06-10T06:57:40;5.00;5.00;5.00;;
70740;Laerm;58330;51.888;11.052;2023-06-10T07:00:06;5.00;5.00;5.00;;
70740;Laerm;58330;51.888;11.052;2023-06-10T07:02:34;5.00;5.00;5.00;;
70740;Laerm;58330;51.888;11.052;2023-06-10T07:05:01;5.00;5.00;5.00;;
70740;Laerm;58330;51.888;11.052;2023-06-10T07:07:28;5.00;5.00;5.00;;
70740;Laerm;58330;51.888;11.052;2023-06-10T07:09:54;5.00;5.00;5.00;;
70740;Laerm;58330;51.888;11.052;2023-06-10T07:12:21;5.00;5.00;5.00;;
70740;Laerm;58330;51.888;11.052;2023-06-10T07:14:49;5.00;5.00;5.00;;
70740;Laerm;58330;51.888;11.052;2023-06-10T07:17:15;5.00;5.00;5.00;;
70740;Laerm;58330;51.888;11.052;2023-06-10T07:19:42;5.00;5.00;5.00;;
70740;Laerm;58330;51.888;11.052;2023-06-10T07:22:10;5.00;5.00;5.00;;
70740;Laerm;58330;51.888;11.052;2023-06-10T07:24:36;5.00;5.00;5.00;;
70740;Laerm;58330;51.888;11.052;2023-06-10T07:27:03;5.00;5.00;5.00;;
70740;Laerm;58330;51.888;11.052;2023-06-10T07:29:30;5.00;5.00;5.00;;
70740;Laerm;58330;51.888;11.052;2023-06-10T07:31:57;5.00;5.00;5.00;;
70740;Laerm;58330;51.888;11.052;2023-06-10T07:34:23;5.00;5.00;5.00;;
70740;Laerm;58330;51.888;11.052;2023-06-10T07:36:49;5.00;5.00;5.00;;
70740;Laerm;58330;51.888;11.052;2023-06-10T07:39:17;5.00;5.00;5.00;;
70740;Laerm;58330;51.888;11.052;2023-06-10T07:41:43;5.00;5.00;5.00;;
70740;Laerm;58330;51.888;11.052;2023-06-10T07:44:09;5.00;5.00;5.00;;
70740;Laerm;58330;51.888;11.052;2023-06-10T07:46:36;5.00;5.00;5.00;;
70740;Laerm;58330;51.888;11.052;2023-06-10T07:49:02;5.00;5.00;5.00;;
70740;Laerm;58330;51.888;11.052;2023-06-10T07:51:28;5.00;5.00;5.00;;
70740;Laerm;58330;51.888;11.052;2023-06-10T07:53:55;5.00;5.00;5.00;;
70740;Laerm;58330;51.888;11.052;2023-06-10T07:56:22;5.00;5.00;5.00;;
70740;Laerm;58330;51.888;11.052;2023-06-10T07:58:50;5.00;5.00;5.00;;
70740;Laerm;58330;51.888;11.052;2023-06-10T08:01:16;5.00;5.00;5.00;;
70740;Laerm;58330;51.888;11.052;2023-06-10T08:03:43;5.00;5.00;5.00;;
70740;Laerm;58330;51.888;11.052;2023-06-10T08:06:09;5.00;5.00;5.00;;
70740;Laerm;58330;51.888;11.052;2023-06-10T08:08:36;5.00;5.00;5.00;;
70740;Laerm;58330;51.888;11.052;2023-06-10T08:11:06;5.00;5.00;5.00;;
70740;Laerm;58330;51.888;11.052;2023-06-10T08:13:34;5.00;5.00;5.00;;
70740;Laerm;58330;51.888;11.052;2023-06-10T08:16:00;5.00;5.00;5.00;;
70740;Laerm;58330;51.888;11.052;2023-06-10T08:18:27;66.93;-334.33;96.29;;
70740;Laerm;58330;51.888;11.052;2023-06-10T08:20:53;60.07;-329.56;96.27;;
70740;Laerm;58330;51.888;11.052;2023-06-10T08:23:19;31.98;30.28;37.38;;
70740;Laerm;58330;51.888;11.052;2023-06-10T08:25:45;32.53;30.90;39.96;;
70740;Laerm;58330;51.888;11.052;2023-06-10T08:28:12;31.96;30.38;38.00;;
70740;Laerm;58330;51.888;11.052;2023-06-10T08:30:39;32.18;30.40;36.91;;
70740;Laerm;58330;51.888;11.052;2023-06-10T08:33:06;32.17;30.82;35.66;;
70740;Laerm;58330;51.888;11.052;2023-06-10T08:35:32;32.70;30.70;38.91;;
70740;Laerm;58330;51.888;11.052;2023-06-10T08:37:59;32.57;30.83;38.43;;
70740;Laerm;58330;51.888;11.052;2023-06-10T08:40:25;33.06;30.73;38.34;;
70740;Laerm;58330;51.888;11.052;2023-06-10T08:42:53;32.75;30.58;38.75;;
70740;Laerm;58330;51.888;11.052;2023-06-10T08:45:22;32.40;30.80;36.51;;
70740;Laerm;58330;51.888;11.052;2023-06-10T08:47:51;32.40;30.80;41.30;;
70740;Laerm;58330;51.888;11.052;2023-06-10T08:50:19;32.74;30.81;37.98;;
70740;Laerm;58330;51.888;11.052;2023-06-10T08:52:47;37.34;31.03;54.89;;
70740;Laerm;58330;51.888;11.052;2023-06-10T08:55:15;32.34;30.54;36.05;;
70740;Laerm;58330;51.888;11.052;2023-06-10T08:57:44;32.36;30.87;39.26;;
70740;Laerm;58330;51.888;11.052;2023-06-10T09:00:12;32.31;30.75;38.28;;
70740;Laerm;58330;51.888;11.052;2023-06-10T09:02:39;32.11;30.55;37.03;;
70740;Laerm;58330;51.888;11.052;2023-06-10T09:05:07;32.75;30.91;39.97;;
70740;Laerm;58330;51.888;11.052;2023-06-10T09:07:34;33.00;30.83;45.29;;
70740;Laerm;58330;51.888;11.052;2023-06-10T09:10:02;32.31;30.72;41.69;;
70740;Laerm;58330;51.888;11.052;2023-06-10T09:12:31;32.23;30.68;38.64;;
70740;Laerm;58330;51.888;11.052;2023-06-10T09:14:58;32.30;30.59;36.12;;
70740;Laerm;58330;51.888;11.052;2023-06-10T09:17:24;32.40;30.60;36.70;;
70740;Laerm;58330;51.888;11.052;2023-06-10T09:19:51;32.09;30.54;34.81;;
70740;Laerm;58330;51.888;11.052;2023-06-10T09:22:20;32.18;30.65;36.13;;
70740;Laerm;58330;51.888;11.052;2023-06-10T09:24:46;33.50;30.88;41.01;;
70740;Laerm;58330;51.888;11.052;2023-06-10T09:27:13;32.53;30.31;38.61;;
70740;Laerm;58330;51.888;11.052;2023-06-10T09:29:46;32.32;30.57;35.44;;
70740;Laerm;58330;51.888;11.052;2023-06-10T09:32:13;31.95;30.43;37.61;;
70740;Laerm;58330;51.888;11.052;2023-06-10T09:34:40;32.17;30.48;37.93;;
70740;Laerm;58330;51.888;11.052;2023-06-10T09:37:06;32.42;30.30;39.10;;
70740;Laerm;58330;51.888;11.052;2023-06-10T09:39:35;32.32;30.32;37.95;;
70740;Laerm;58330;51.888;11.052;2023-06-10T09:42:01;31.90;30.40;35.34;;
70740;Laerm;58330;51.888;11.052;2023-06-10T09:44:27;31.98;30.48;37.24;;
70740;Laerm;58330;51.888;11.052;2023-06-10T09:46:56;32.25;30.49;37.24;;
70740;Laerm;58330;51.888;11.052;2023-06-10T09:49:24;32.01;30.51;36.67;;
70740;Laerm;58330;51.888;11.052;2023-06-10T09:51:55;32.49;30.29;46.71;;
70740;Laerm;58330;51.888;11.052;2023-06-10T09:54:21;32.34;30.31;39.94;;
70740;Laerm;58330;51.888;11.052;2023-06-10T09:56:49;31.84;30.27;36.38;;
70740;Laerm;58330;51.888;11.052;2023-06-10T09:59:16;31.71;30.10;41.60;;
70740;Laerm;58330;51.888;11.052;2023-06-10T10:01:42;31.53;30.03;38.86;;
70740;Laerm;58330;51.888;11.052;2023-06-10T10:04:09;31.94;30.27;36.81;;
70740;Laerm;58330;51.888;11.052;2023-06-10T10:06:35;32.35;30.12;49.24;;
70740;Laerm;58330;51.888;11.052;2023-06-10T10:09:02;31.68;30.05;38.15;;
70740;Laerm;58330;51.888;11.052;2023-06-10T10:11:30;32.67;30.08;42.70;;
70740;Laerm;58330;51.888;11.052;2023-06-10T10:13:59;31.59;29.88;36.97;;
70740;Laerm;58330;51.888;11.052;2023-06-10T10:16:26;31.32;29.54;42.76;;
70740;Laerm;58330;51.888;11.052;2023-06-10T10:18:55;31.53;29.96;35.77;;
70740;Laerm;58330;51.888;11.052;2023-06-10T10:21:26;31.62;30.03;38.54;;
70740;Laerm;58330;51.888;11.052;2023-06-10T10:23:53;31.35;29.35;35.92;;
70740;Laerm;58330;51.888;11.052;2023-06-10T10:26:20;31.15;29.58;35.93;;
70740;Laerm;58330;51.888;11.052;2023-06-10T10:28:48;31.14;29.40;33.32;;
70740;Laerm;58330;51.888;11.052;2023-06-10T10:31:18;31.36;29.52;35.46;;
70740;Laerm;58330;51.888;11.052;2023-06-10T10:33:48;31.21;29.61;36.82;;
70740;Laerm;58330;51.888;11.052;2023-06-10T10:36:18;31.58;29.30;38.60;;
70740;Laerm;58330;51.888;11.052;2023-06-10T10:38:45;31.98;29.19;41.28;;
70740;Laerm;58330;51.888;11.052;2023-06-10T10:41:13;31.03;29.05;37.96;;
70740;Laerm;58330;51.888;11.052;2023-06-10T10:43:40;30.64;28.86;40.43;;
70740;Laerm;58330;51.888;11.052;2023-06-10T10:46:09;30.72;28.98;33.92;;
70740;Laerm;58330;51.888;11.052;2023-06-10T10:48:38;30.93;28.95;38.17;;
70740;Laerm;58330;51.888;11.052;2023-06-10T10:51:06;32.20;29.16;40.78;;
70740;Laerm;58330;51.888;11.052;2023-06-10T10:53:32;31.16;29.26;37.47;;
70740;Laerm;58330;51.888;11.052;2023-06-10T10:55:59;31.20;29.27;35.87;;
70740;Laerm;58330;51.888;11.052;2023-06-10T10:58:25;31.17;29.24;35.87;;
70740;Laerm;58330;51.888;11.052;2023-06-10T11:00:52;30.91;29.07;34.93;;
70740;Laerm;58330;51.888;11.052;2023-06-10T11:03:18;31.16;29.21;37.95;;
70740;Laerm;58330;51.888;11.052;2023-06-10T11:05:46;31.33;29.39;40.84;;
70740;Laerm;58330;51.888;11.052;2023-06-10T11:08:14;31.95;29.44;37.81;;
70740;Laerm;58330;51.888;11.052;2023-06-10T11:10:41;30.75;29.13;43.74;;
70740;Laerm;58330;51.888;11.052;2023-06-10T11:13:08;30.75;29.09;35.23;;
70740;Laerm;58330;51.888;11.052;2023-06-10T11:15:38;30.91;28.95;34.14;;
70740;Laerm;58330;51.888;11.052;2023-06-10T11:20:53;31.98;28.52;41.37;;
70740;Laerm;58330;51.888;11.052;2023-06-10T11:23:33;30.62;28.91;37.41;;
70740;Laerm;58330;51.888;11.052;2023-06-10T11:26:09;31.07;28.96;44.39;;
70740;Laerm;58330;51.888;11.052;2023-06-10T11:28:36;31.15;28.90;37.71;;
70740;Laerm;58330;51.888;11.052;2023-06-10T11:31:03;30.52;28.93;32.63;;
70740;Laerm;58330;51.888;11.052;2023-06-10T11:33:29;30.78;28.99;35.41;;
70740;Laerm;58330;51.888;11.052;2023-06-10T11:35:57;30.75;28.99;42.34;;
70740;Laerm;58330;51.888;11.052;2023-06-10T11:38:23;30.85;28.94;39.08;;
70740;Laerm;58330;51.888;11.052;2023-06-10T11:40:50;30.90;28.56;38.98;;
70740;Laerm;58330;51.888;11.052;2023-06-10T11:43:17;30.72;28.67;36.72;;
70740;Laerm;58330;51.888;11.052;2023-06-10T11:45:43;30.89;29.09;36.81;;
70740;Laerm;58330;51.888;11.052;2023-06-10T11:48:10;30.92;28.92;40.07;;
70740;Laerm;58330;51.888;11.052;2023-06-10T11:50:36;30.57;29.12;33.41;;
70740;Laerm;58330;51.888;11.052;2023-06-10T11:53:04;31.66;28.75;39.47;;
70740;Laerm;58330;51.888;11.052;2023-06-10T11:55:41;30.95;28.79;37.33;;
70740;Laerm;58330;51.888;11.052;2023-06-10T11:58:11;32.03;29.13;39.55;;
70740;Laerm;58330;51.888;11.052;2023-06-10T12:00:43;30.67;28.84;35.55;;
70740;Laerm;58330;51.888;11.052;2023-06-10T12:03:09;30.52;28.88;35.95;;
70740;Laerm;58330;51.888;11.052;2023-06-10T12:05:35;30.49;28.80;35.62;;
70740;Laerm;58330;51.888;11.052;2023-06-10T12:08:10;30.66;28.90;41.90;;
70740;Laerm;58330;51.888;11.052;2023-06-10T12:10:40;31.96;29.02;40.53;;
70740;Laerm;58330;51.888;11.052;2023-06-10T12:13:06;31.18;28.90;46.59;;
70740;Laerm;58330;51.888;11.052;2023-06-10T12:15:33;30.75;28.95;35.89;;
70740;Laerm;58330;51.888;11.052;2023-06-10T12:17:59;30.92;28.77;40.19;;
70740;Laerm;58330;51.888;11.052;2023-06-10T12:20:26;30.80;28.90;40.16;;
70740;Laerm;58330;51.888;11.052;2023-06-10T12:22:53;31.05;28.22;38.92;;
70740;Laerm;58330;51.888;11.052;2023-06-10T12:25:25;32.98;29.04;47.47;;
70740;Laerm;58330;51.888;11.052;2023-06-10T12:27:52;31.34;28.58;44.79;;
70740;Laerm;58330;51.888;11.052;2023-06-10T12:30:19;31.58;28.75;44.89;;
70740;Laerm;58330;51.888;11.052;2023-06-10T12:32:46;31.22;28.84;39.31;;
70740;Laerm;58330;51.888;11.052;2023-06-10T12:35:13;30.75;28.73;37.01;;
70740;Laerm;58330;51.888;11.052;2023-06-10T12:37:40;31.26;28.97;39.25;;
70740;Laerm;58330;51.888;11.052;2023-06-10T12:40:07;31.94;29.14;38.62;;
70740;Laerm;58330;51.888;11.052;2023-06-10T12:42:36;31.04;29.18;37.41;;
70740;Laerm;58330;51.888;11.052;2023-06-10T12:45:03;30.74;28.44;36.90;;
70740;Laerm;58330;51.888;11.052;2023-06-10T12:47:32;30.33;28.63;32.90;;
70740;Laerm;58330;51.888;11.052;2023-06-10T12:50:00;31.32;28.49;40.91;;
70740;Laerm;58330;51.888;11.052;2023-06-10T12:52:27;32.77;28.58;58.47;;
70740;Laerm;58330;51.888;11.052;2023-06-10T12:54:53;30.66;28.64;37.01;;
70740;Laerm;58330;51.888;11.052;2023-06-10T12:57:20;31.63;28.70;38.47;;
70740;Laerm;58330;51.888;11.052;2023-06-10T12:59:47;30.35;28.74;38.09;;
70740;Laerm;58330;51.888;11.052;2023-06-10T13:02:17;31.99;28.74;40.42;;
70740;Laerm;58330;51.888;11.052;2023-06-10T13:04:44;30.17;28.16;32.54;;
70740;Laerm;58330;51.888;11.052;2023-06-10T13:07:11;31.18;28.66;37.41;;
70740;Laerm;58330;51.888;11.052;2023-06-10T13:09:37;30.92;28.43;41.77;;
70740;Laerm;58330;51.888;11.052;2023-06-10T13:12:04;30.95;28.64;39.73;;
70740;Laerm;58330;51.888;11.052;2023-06-10T13:14:31;30.80;28.74;36.20;;
70740;Laerm;58330;51.888;11.052;2023-06-10T13:16:59;30.17;28.37;34.94;;
70740;Laerm;58330;51.888;11.052;2023-06-10T13:19:25;30.43;28.35;42.41;;
70740;Laerm;58330;51.888;11.052;2023-06-10T13:21:52;32.28;28.57;40.60;;
70740;Laerm;58330;51.888;11.052;2023-06-10T13:24:18;30.13;28.49;38.30;;
70740;Laerm;58330;51.888;11.052;2023-06-10T13:26:45;30.75;28.36;39.25;;
70740;Laerm;58330;51.888;11.052;2023-06-10T13:29:11;29.95;28.47;36.63;;
70740;Laerm;58330;51.888;11.052;2023-06-10T13:31:39;31.22;28.50;45.18;;
70740;Laerm;58330;51.888;11.052;2023-06-10T13:34:07;31.11;28.50;37.13;;
70740;Laerm;58330;51.888;11.052;2023-06-10T13:36:33;30.86;28.65;38.13;;
70740;Laerm;58330;51.888;11.052;2023-06-10T13:38:59;30.04;28.43;33.77;;
70740;Laerm;58330;51.888;11.052;2023-06-10T13:41:26;31.44;28.39;40.97;;
70740;Laerm;58330;51.888;11.052;2023-06-10T13:43:53;30.47;28.39;38.08;;
70740;Laerm;58330;51.888;11.052;2023-06-10T13:46:19;32.18;29.06;49.69;;
70740;Laerm;58330;51.888;11.052;2023-06-10T13:48:46;34.18;29.46;44.84;;
70740;Laerm;58330;51.888;11.052;2023-06-10T13:51:14;34.14;30.83;43.90;;
70740;Laerm;58330;51.888;11.052;2023-06-10T13:53:40;35.17;30.58;48.54;;
70740;Laerm;58330;51.888;11.052;2023-06-10T13:56:07;31.83;29.37;37.09;;